createdAt,value
2019-03-24T00:01:41.055Z,16.87
2019-03-24T00:04:41.325Z,27.63
2019-03-24T00:07:46.129Z,23.43
2019-03-24T00:10:51.012Z,21.43
2019-03-24T00:13:56.896Z,17.43
2019-03-24T00:17:02.317Z,21.40
2019-03-24T00:20:10.144Z,18.93
2019-03-24T00:23:14.916Z,17.33
2019-03-24T00:26:23.535Z,20.17
2019-03-24T00:29:28.693Z,18.83
2019-03-24T00:32:33.549Z,14.40
2019-03-24T00:35:38.389Z,17.50
2019-03-24T00:38:43.303Z,19.23
2019-03-24T00:41:48.227Z,16.30
2019-03-24T00:44:53.538Z,19.50
2019-03-24T00:47:58.785Z,23.07
2019-03-24T00:51:03.580Z,16.03
2019-03-24T00:54:08.827Z,14.90
2019-03-24T00:57:13.794Z,18.60
2019-03-24T01:00:23.683Z,16.43
2019-03-24T01:03:28.570Z,15.83
2019-03-24T01:06:34.364Z,14.23
2019-03-24T01:09:39.343Z,15.03
2019-03-24T01:12:44.316Z,15.20
2019-03-24T01:15:49.481Z,15.07
2019-03-24T01:18:54.310Z,26.67
2019-03-24T01:21:59.104Z,19.23
2019-03-24T01:25:04.065Z,19.20
2019-03-24T01:28:09.870Z,18.30
2019-03-24T01:31:14.727Z,21.30
2019-03-24T01:34:21.290Z,21.30
2019-03-24T01:37:26.486Z,18.90
2019-03-24T01:40:31.377Z,18.40
2019-03-24T01:43:36.208Z,19.20
2019-03-24T01:46:41.573Z,17.37
2019-03-24T01:49:46.508Z,23.67
2019-03-24T01:52:51.386Z,20.77
2019-03-24T01:55:56.184Z,19.67
2019-03-24T01:59:02.117Z,28.17
2019-03-24T02:02:10.826Z,26.70
2019-03-24T02:05:17.869Z,21.93
2019-03-24T02:08:22.857Z,28.20
2019-03-24T02:11:31.427Z,23.80
2019-03-24T02:14:36.304Z,23.83
2019-03-24T02:17:41.195Z,33.23
2019-03-24T02:20:46.032Z,33.67
2019-03-24T02:23:50.859Z,29.27
2019-03-24T02:26:56.149Z,29.93
2019-03-24T02:30:01.023Z,29.93
2019-03-24T02:33:09.854Z,28.10
2019-03-24T02:36:14.783Z,26.67
2019-03-24T02:39:20.102Z,25.83
2019-03-24T02:42:25.005Z,24.77
2019-03-24T02:45:29.900Z,24.10
2019-03-24T02:48:37.175Z,20.27
2019-03-24T02:51:42.524Z,21.43
2019-03-24T02:54:47.854Z,28.57
2019-03-24T02:57:52.747Z,32.10
2019-03-24T03:00:57.566Z,24.87
2019-03-24T03:04:02.358Z,31.67
2019-03-24T03:07:09.345Z,24.43
2019-03-24T03:10:14.846Z,21.67
2019-03-24T03:13:22.689Z,30.87
2019-03-24T03:16:38.195Z,33.33
2019-03-24T03:19:35.292Z,31.70
2019-03-24T03:22:42.526Z,34.20
2019-03-24T03:25:49.340Z,33.60
2019-03-24T03:28:54.241Z,30.73
2019-03-24T03:32:00.738Z,32.23
2019-03-24T03:35:06.515Z,32.33
2019-03-24T03:38:11.425Z,35.10
2019-03-24T03:41:16.800Z,33.83
2019-03-24T03:44:21.739Z,26.93
2019-03-24T03:47:26.717Z,28.57
2019-03-24T03:50:31.629Z,37.10
2019-03-24T03:53:37.393Z,34.23
2019-03-24T03:56:43.050Z,31.03
2019-03-24T03:59:59.445Z,34.17
2019-03-24T04:03:05.260Z,29.80
2019-03-24T04:06:10.225Z,38.33
2019-03-24T04:09:15.161Z,32.30
2019-03-24T04:12:20.561Z,27.83
2019-03-24T04:15:26.322Z,26.57
2019-03-24T04:18:31.194Z,27.33
2019-03-24T04:21:37.526Z,26.07
2019-03-24T04:24:42.855Z,30.97
2019-03-24T04:27:48.842Z,28.73
2019-03-24T04:30:53.715Z,32.87
2019-03-24T04:34:01.317Z,30.73
2019-03-24T04:37:08.557Z,40.70
2019-03-24T04:40:15.272Z,33.53
2019-03-24T04:43:20.140Z,37.60
2019-03-24T04:46:28.498Z,37.80
2019-03-24T04:49:33.390Z,32.33
2019-03-24T04:52:39.388Z,39.37
2019-03-24T04:55:44.355Z,29.03
2019-03-24T04:58:49.337Z,31.90
2019-03-24T05:01:54.238Z,36.60
2019-03-24T05:04:59.093Z,36.67
2019-03-24T05:08:04.605Z,31.67
2019-03-24T05:11:09.534Z,32.73
2019-03-24T05:14:15.535Z,25.80
2019-03-24T05:17:26.937Z,31.33
2019-03-24T05:20:28.665Z,31.13
2019-03-24T05:23:33.452Z,25.87
2019-03-24T05:26:38.247Z,27.97
2019-03-24T05:29:43.594Z,21.17
2019-03-24T05:32:48.454Z,26.77
2019-03-24T05:35:53.786Z,22.17
2019-03-24T05:38:58.747Z,17.80
2019-03-24T05:42:03.578Z,16.43
2019-03-24T05:45:09.674Z,15.70
2019-03-24T05:48:15.100Z,15.30
2019-03-24T05:51:20.041Z,19.30
2019-03-24T05:54:25.623Z,15.50
2019-03-24T05:57:31.427Z,16.50
2019-03-24T06:00:38.117Z,14.87
2019-03-24T06:03:42.988Z,17.43
2019-03-24T06:06:48.280Z,16.60
2019-03-24T06:09:53.949Z,18.90
2019-03-24T06:12:59.185Z,15.50
2019-03-24T06:16:05.516Z,16.70
2019-03-24T06:19:10.345Z,15.60
2019-03-24T06:22:17.485Z,16.00
2019-03-24T06:25:22.369Z,15.87
2019-03-24T06:28:27.690Z,19.57
2019-03-24T06:31:32.569Z,17.87
2019-03-24T06:34:37.543Z,18.57
2019-03-24T06:37:43.314Z,21.20
2019-03-24T06:40:48.125Z,20.77
2019-03-24T06:43:53.159Z,29.23
2019-03-24T06:46:58.050Z,23.77
2019-03-24T06:50:04.885Z,21.37
2019-03-24T06:53:10.051Z,20.47
2019-03-24T06:56:15.968Z,17.43
2019-03-24T06:59:23.550Z,20.07
2019-03-24T07:02:29.246Z,20.67
2019-03-24T07:05:34.142Z,17.77
2019-03-24T07:08:38.913Z,16.80
2019-03-24T07:11:43.808Z,17.70
2019-03-24T07:14:49.075Z,16.67
2019-03-24T07:17:53.839Z,17.70
2019-03-24T07:20:58.642Z,22.10
2019-03-24T07:24:03.559Z,27.20
2019-03-24T07:27:08.437Z,28.47
2019-03-24T07:30:13.784Z,20.17
2019-03-24T07:33:18.654Z,18.67
2019-03-24T07:36:23.628Z,21.73
2019-03-24T07:39:28.446Z,22.77
2019-03-24T07:42:33.627Z,24.97
2019-03-24T07:45:38.942Z,18.97
2019-03-24T07:48:44.883Z,20.73
2019-03-24T07:52:01.340Z,21.83
2019-03-24T07:55:10.763Z,22.07
2019-03-24T07:58:17.591Z,23.33
2019-03-24T08:01:23.833Z,20.07
2019-03-24T08:04:31.439Z,18.73
2019-03-24T08:07:37.155Z,22.47
2019-03-24T08:10:42.407Z,18.80
2019-03-24T08:13:53.793Z,16.20
2019-03-24T08:16:56.001Z,13.70
2019-03-24T08:20:09.182Z,14.47
2019-03-24T08:23:18.713Z,17.63
2019-03-24T08:26:25.421Z,15.57
2019-03-24T08:29:35.680Z,16.77
2019-03-24T08:33:02.397Z,15.30
2019-03-24T08:36:08.885Z,16.63
2019-03-24T08:39:13.765Z,14.13
2019-03-24T08:42:18.579Z,15.17
2019-03-24T08:45:30.411Z,12.80
2019-03-24T08:48:40.814Z,14.23
2019-03-24T08:51:54.707Z,15.63
2019-03-24T08:55:10.989Z,16.23
2019-03-24T08:58:18.660Z,15.60
2019-03-24T09:01:34.051Z,16.63
2019-03-24T09:04:48.710Z,14.33
2019-03-24T09:08:05.172Z,12.63
2019-03-24T09:11:13.040Z,11.53
2019-03-24T09:14:23.342Z,10.67
2019-03-24T09:17:30.439Z,17.97
2019-03-24T09:20:41.630Z,17.67
2019-03-24T09:23:43.058Z,12.90
2019-03-24T09:26:50.686Z,12.30
2019-03-24T09:29:55.602Z,14.27
2019-03-24T09:33:00.465Z,12.83
2019-03-24T09:36:05.300Z,16.20
2019-03-24T09:39:10.184Z,14.30
2019-03-24T09:42:14.990Z,13.80
2019-03-24T09:45:19.843Z,12.83
2019-03-24T09:48:24.834Z,10.57
2019-03-24T09:51:32.249Z,20.10
2019-03-24T09:54:37.060Z,16.50
2019-03-24T09:57:41.887Z,13.03
2019-03-24T10:00:47.228Z,15.17
2019-03-24T10:03:52.141Z,17.03
2019-03-24T10:06:58.008Z,12.73
2019-03-24T10:10:04.110Z,12.07
2019-03-24T10:13:08.996Z,13.93
2019-03-24T10:16:13.893Z,15.80
2019-03-24T10:19:21.355Z,16.83
2019-03-24T10:22:28.298Z,15.30
2019-03-24T10:25:33.161Z,16.83
2019-03-24T10:28:38.043Z,14.60
2019-03-24T10:31:43.058Z,9.80
2019-03-24T10:34:47.816Z,12.07
2019-03-24T10:37:54.979Z,14.40
2019-03-24T10:40:59.780Z,9.90
2019-03-24T10:44:05.768Z,15.47
2019-03-24T10:47:10.580Z,12.40
2019-03-24T10:50:15.784Z,13.57
2019-03-24T10:53:20.586Z,12.67
2019-03-24T10:56:26.767Z,10.93
2019-03-24T10:59:31.930Z,12.93
2019-03-24T11:02:36.906Z,12.73
2019-03-24T11:05:44.846Z,10.47
2019-03-24T11:08:49.640Z,8.60
2019-03-24T11:11:54.633Z,11.53
2019-03-24T11:14:59.446Z,12.93
2019-03-24T11:18:04.335Z,11.27
2019-03-24T11:21:09.544Z,11.20
2019-03-24T11:24:14.430Z,11.53
2019-03-24T11:27:19.469Z,10.80
2019-03-24T11:30:24.739Z,12.37
2019-03-24T11:33:29.811Z,11.23
2019-03-24T11:36:34.755Z,10.77
2019-03-24T11:39:40.769Z,10.30
2019-03-24T11:42:45.646Z,9.53
2019-03-24T11:45:51.382Z,9.87
2019-03-24T11:48:56.185Z,8.83
2019-03-24T11:52:01.940Z,9.67
2019-03-24T11:55:09.020Z,8.17
2019-03-24T11:58:14.007Z,8.03
2019-03-24T12:01:18.931Z,8.30
2019-03-24T12:04:24.220Z,9.23
2019-03-24T12:07:30.172Z,8.63
2019-03-24T12:10:35.151Z,9.30
2019-03-24T12:13:40.222Z,8.13
2019-03-24T12:16:45.022Z,10.10
2019-03-24T12:19:56.752Z,9.87
2019-03-24T12:22:57.472Z,11.67
2019-03-24T12:26:02.394Z,12.53
2019-03-24T12:29:07.321Z,11.30
2019-03-24T12:32:12.201Z,10.03
2019-03-24T12:35:17.181Z,13.53
2019-03-24T12:38:23.496Z,9.73
2019-03-24T12:41:28.405Z,9.83
2019-03-24T12:44:36.713Z,12.53
2019-03-24T12:47:41.632Z,9.70
2019-03-24T12:50:47.270Z,9.17
2019-03-24T12:53:53.213Z,9.87
2019-03-24T12:56:59.067Z,9.77
2019-03-24T13:00:04.585Z,11.23
2019-03-24T13:03:11.863Z,10.50
2019-03-24T13:06:17.487Z,10.33
2019-03-24T13:09:22.410Z,12.40
2019-03-24T13:12:33.901Z,12.30
2019-03-24T13:15:39.194Z,14.57
2019-03-24T13:18:44.551Z,15.77
2019-03-24T13:21:49.471Z,13.93
2019-03-24T13:24:54.752Z,13.93
2019-03-24T13:28:00.026Z,13.10
2019-03-24T13:31:05.070Z,16.43
2019-03-24T13:34:09.965Z,14.33
2019-03-24T13:37:15.636Z,12.57
2019-03-24T13:40:20.517Z,13.83
2019-03-24T13:43:25.423Z,15.50
2019-03-24T13:46:30.324Z,15.27
2019-03-24T13:49:35.221Z,18.90
2019-03-24T13:52:40.086Z,14.80
2019-03-24T13:55:45.024Z,18.30
2019-03-24T13:58:49.936Z,12.23
2019-03-24T14:01:54.838Z,14.07
2019-03-24T14:04:59.728Z,14.23
2019-03-24T14:08:05.952Z,11.27
2019-03-24T14:11:10.869Z,9.80
2019-03-24T14:14:15.741Z,8.93
2019-03-24T14:17:20.742Z,10.83
2019-03-24T14:20:25.715Z,15.10
2019-03-24T14:23:33.761Z,11.80
2019-03-24T14:26:38.653Z,13.73
2019-03-24T14:29:43.579Z,17.20
2019-03-24T14:32:48.485Z,13.43
2019-03-24T14:35:53.398Z,11.00
2019-03-24T14:39:00.191Z,13.97
2019-03-24T14:42:05.735Z,12.00
2019-03-24T14:45:11.212Z,13.43
2019-03-24T14:48:16.119Z,14.50
2019-03-24T14:51:21.455Z,14.77
2019-03-24T14:54:26.377Z,15.07
2019-03-24T14:57:33.568Z,19.83
2019-03-24T15:00:40.600Z,18.00
2019-03-24T15:03:45.507Z,16.90
2019-03-24T15:06:50.841Z,16.07
2019-03-24T15:09:57.413Z,15.27
2019-03-24T15:13:04.369Z,16.60
2019-03-24T15:16:09.324Z,14.30
2019-03-24T15:19:16.490Z,11.33
2019-03-24T15:22:24.746Z,10.07
2019-03-24T15:25:29.631Z,10.50
2019-03-24T15:28:34.553Z,11.07
2019-03-24T15:31:39.430Z,11.50
2019-03-24T15:34:44.358Z,10.20
2019-03-24T15:37:49.371Z,8.97
2019-03-24T15:40:54.928Z,11.43
2019-03-24T15:43:59.810Z,9.57
2019-03-24T15:47:04.709Z,9.93
2019-03-24T15:50:09.743Z,8.97
2019-03-24T15:53:14.701Z,6.87
2019-03-24T15:56:19.590Z,8.27
2019-03-24T15:59:24.779Z,8.47
2019-03-24T16:02:29.705Z,9.83
2019-03-24T16:05:34.641Z,7.27
2019-03-24T16:08:39.514Z,5.97
2019-03-24T16:11:44.416Z,6.77
2019-03-24T16:14:49.391Z,6.23
2019-03-24T16:17:55.442Z,5.67
2019-03-24T16:21:00.362Z,6.30
2019-03-24T16:24:24.052Z,5.57
2019-03-24T16:27:28.939Z,5.80
2019-03-24T16:30:35.349Z,5.57
2019-03-24T16:33:40.253Z,4.43
2019-03-24T16:36:45.604Z,4.70
2019-03-24T16:39:50.550Z,6.00
2019-03-24T16:42:55.443Z,4.33
2019-03-24T16:46:00.355Z,4.93
2019-03-24T16:49:05.306Z,5.20
2019-03-24T16:52:10.127Z,4.23
2019-03-24T16:55:15.404Z,5.17
2019-03-24T16:58:20.255Z,4.00
2019-03-24T17:01:26.323Z,3.83
2019-03-24T17:04:31.650Z,3.83
2019-03-24T17:07:39.424Z,4.60
2019-03-24T17:10:45.834Z,4.10
2019-03-24T17:13:50.755Z,4.17
2019-03-24T17:16:55.537Z,4.87
2019-03-24T17:20:00.575Z,5.53
2019-03-24T17:23:05.773Z,4.80
2019-03-24T17:26:10.583Z,4.07
2019-03-24T17:29:15.579Z,5.47
2019-03-24T17:32:20.786Z,5.00
2019-03-24T17:35:25.718Z,5.80
2019-03-24T17:38:31.208Z,6.87
2019-03-24T17:41:36.623Z,7.10
2019-03-24T17:44:41.541Z,5.87
2019-03-24T17:47:46.417Z,5.30
2019-03-24T17:50:51.237Z,5.30
2019-03-24T17:53:57.451Z,8.57
2019-03-24T17:57:03.695Z,7.40
2019-03-24T18:00:11.600Z,6.67
2019-03-24T18:03:16.540Z,5.33
2019-03-24T18:06:21.879Z,5.60
2019-03-24T18:09:28.958Z,6.97
2019-03-24T18:12:35.947Z,5.00
2019-03-24T18:15:43.373Z,4.47
2019-03-24T18:18:49.724Z,5.67
2019-03-24T18:21:55.791Z,5.83
2019-03-24T18:25:00.652Z,7.90
2019-03-24T18:28:06.381Z,5.30
2019-03-24T18:31:12.369Z,6.80
2019-03-24T18:34:17.615Z,5.97
2019-03-24T18:37:22.994Z,6.27
2019-03-24T18:40:28.972Z,6.93
2019-03-24T18:43:33.883Z,6.00
2019-03-24T18:46:38.820Z,4.60
2019-03-24T18:49:43.703Z,3.83
2019-03-24T18:52:50.185Z,7.57
2019-03-24T18:55:57.849Z,5.43
2019-03-24T18:59:03.080Z,6.13
2019-03-24T19:02:12.032Z,5.90
2019-03-24T19:05:18.020Z,6.47
2019-03-24T19:08:22.921Z,5.73
2019-03-24T19:11:28.264Z,6.10
2019-03-24T19:14:33.153Z,5.33
2019-03-24T19:17:38.330Z,5.43
2019-03-24T19:20:43.594Z,5.97
2019-03-24T19:23:51.383Z,5.43
2019-03-24T19:26:56.163Z,5.50
2019-03-24T19:30:01.138Z,5.87
2019-03-24T19:33:08.539Z,7.53
2019-03-24T19:36:13.460Z,5.53
2019-03-24T19:39:18.443Z,7.73
2019-03-24T19:42:25.053Z,7.60
2019-03-24T19:45:30.520Z,6.17
2019-03-24T19:48:35.604Z,5.83
2019-03-24T19:51:42.596Z,7.33
2019-03-24T19:54:47.877Z,5.80
2019-03-24T19:57:53.884Z,5.37
2019-03-24T20:00:59.852Z,7.43
2019-03-24T20:04:07.503Z,7.20
2019-03-24T20:07:13.135Z,5.87
2019-03-24T20:10:17.952Z,7.40
2019-03-24T20:13:23.256Z,6.63
2019-03-24T20:16:28.578Z,6.73
2019-03-24T20:19:33.478Z,6.27
2019-03-24T20:22:38.390Z,6.10
2019-03-24T20:25:43.326Z,7.57
2019-03-24T20:28:48.757Z,8.07
2019-03-24T20:31:53.737Z,10.00
2019-03-24T20:34:58.753Z,11.47
2019-03-24T20:38:04.500Z,8.80
2019-03-24T20:41:10.369Z,8.50
2019-03-24T20:44:15.334Z,9.37
2019-03-24T20:47:21.489Z,8.17
2019-03-24T20:50:26.981Z,8.23
2019-03-24T20:53:31.861Z,9.13
2019-03-24T20:56:37.183Z,10.97
2019-03-24T20:59:42.532Z,10.50
2019-03-24T21:02:47.446Z,9.50
2019-03-24T21:05:52.823Z,11.50
2019-03-24T21:08:57.709Z,13.43
2019-03-24T21:12:03.208Z,11.70
2019-03-24T21:15:11.523Z,11.80
2019-03-24T21:18:15.910Z,12.53
2019-03-24T21:21:20.796Z,12.70
2019-03-24T21:24:26.301Z,13.73
2019-03-24T21:27:31.855Z,11.23
2019-03-24T21:30:38.767Z,11.23
2019-03-24T21:33:43.666Z,15.07
2019-03-24T21:36:50.662Z,14.50
2019-03-24T21:39:56.913Z,13.93
2019-03-24T21:43:02.799Z,16.53
2019-03-24T21:46:07.966Z,17.00
2019-03-24T21:49:13.232Z,15.03
2019-03-24T21:52:18.555Z,15.47
2019-03-24T21:55:23.444Z,14.80
2019-03-24T21:58:28.366Z,17.37
2019-03-24T22:01:33.759Z,15.73
2019-03-24T22:04:38.658Z,15.90
2019-03-24T22:07:43.535Z,16.93
2019-03-24T22:10:49.255Z,20.07
2019-03-24T22:13:56.993Z,20.47
2019-03-24T22:17:01.878Z,19.73
2019-03-24T22:20:07.840Z,18.87
2019-03-24T22:23:12.727Z,20.27
2019-03-24T22:26:17.683Z,18.47
2019-03-24T22:29:22.507Z,19.90
2019-03-24T22:32:27.345Z,20.00
2019-03-24T22:35:32.761Z,21.20
2019-03-24T22:38:37.577Z,19.50
2019-03-24T22:41:43.911Z,22.57
2019-03-24T22:44:50.350Z,23.87
2019-03-24T22:47:55.692Z,23.37
2019-03-24T22:51:00.854Z,18.33
2019-03-24T22:54:06.155Z,22.10
2019-03-24T22:57:11.478Z,19.77
2019-03-24T23:00:23.253Z,21.83
2019-03-24T23:03:28.942Z,21.47
2019-03-24T23:06:36.178Z,19.87
2019-03-24T23:09:41.399Z,21.27
2019-03-24T23:12:46.217Z,22.43
2019-03-24T23:15:51.050Z,21.77
2019-03-24T23:18:56.295Z,23.47
2019-03-24T23:22:01.674Z,21.57
2019-03-24T23:25:07.318Z,20.87
2019-03-24T23:28:12.331Z,22.67
2019-03-24T23:31:17.291Z,21.13
2019-03-24T23:34:22.486Z,22.17
2019-03-24T23:37:27.393Z,20.60
2019-03-24T23:40:32.383Z,18.50
2019-03-24T23:43:37.277Z,18.67
2019-03-24T23:46:42.291Z,18.50
2019-03-24T23:49:47.117Z,21.73
2019-03-24T23:52:52.548Z,20.07
2019-03-24T23:55:57.424Z,17.80
2019-03-24T23:59:02.378Z,20.27
